Time;durP1;ratioP1;P1;durP2;ratioP2;P2;SDS_P1;SDS_P2;PMS_P1;PMS_P2;Temp;Humidity;BMP_temperature;BMP_pressure;BME280_temperature;BME280_humidity;BME280_pressure;Samples;Min_cycle;Max_cycle;Signal;HPM_P1;HPM_P2
2022/09/26 00:01:50;;;;;;;12.88;11.27;;;16.80;1.00;;;;;;5093379;28;20178;-62
2022/09/26 00:04:22;;;;;;;17.85;12.27;;;16.80;1.00;;;;;;5086659;28;20111;-61
2022/09/26 00:06:49;;;;;;;14.15;12.27;;;16.80;1.00;;;;;;5078517;28;20047;-61
2022/09/26 00:09:16;;;;;;;11.77;10.63;;;16.80;1.00;;;;;;5081912;28;20024;-61
2022/09/26 00:11:43;;;;;;;11.45;10.25;;;16.60;1.00;;;;;;5072545;28;20082;-61
2022/09/26 00:14:22;;;;;;;12.40;10.73;;;16.60;1.00;;;;;;5073052;28;20034;-61
2022/09/26 00:16:48;;;;;;;10.90;9.85;;;16.70;1.00;;;;;;5072666;28;20036;-62
2022/09/26 00:19:14;;;;;;;12.52;10.38;;;16.70;1.00;;;;;;5077558;28;20039;-62
2022/09/26 00:21:40;;;;;;;11.30;10.10;;;16.70;1.00;;;;;;5091858;28;20420;-62
2022/09/26 00:24:06;;;;;;;10.65;9.60;;;16.70;1.00;;;;;;5091969;28;20052;-61
2022/09/26 00:26:33;;;;;;;10.20;9.20;;;16.70;1.00;;;;;;5093030;28;20176;-62
2022/09/26 00:29:03;;;;;;;10.82;9.73;;;16.60;1.00;;;;;;5092013;28;20039;-62
2022/09/26 00:31:31;;;;;;;12.18;9.23;;;16.60;1.00;;;;;;5092882;28;20469;-61
2022/09/26 00:33:58;;;;;;;9.48;8.55;;;16.70;1.00;;;;;;5092002;28;20446;-61
2022/09/26 00:36:26;;;;;;;11.38;10.05;;;16.60;1.00;;;;;;5091620;28;20020;-62
2022/09/26 00:38:51;;;;;;;10.38;9.30;;;16.60;1.00;;;;;;5092131;28;20024;-63
2022/09/26 00:41:17;;;;;;;10.38;9.20;;;16.60;1.00;;;;;;5080559;28;20024;-62
2022/09/26 00:43:48;;;;;;;10.05;9.02;;;16.60;1.00;;;;;;5089931;28;20032;-61
2022/09/26 00:46:31;;;;;;;10.13;9.13;;;16.60;1.00;;;;;;5072391;28;20017;-61
2022/09/26 00:49:25;;;;;;;9.95;8.95;;;16.50;1.00;;;;;;5074301;28;20375;-61
2022/09/26 00:52:06;;;;;;;8.98;8.07;;;16.50;1.00;;;;;;5090649;28;20470;-61
2022/09/26 00:54:34;;;;;;;10.68;8.80;;;16.50;1.00;;;;;;5084508;28;20079;-61
2022/09/26 00:57:05;;;;;;;9.82;8.93;;;16.50;1.00;;;;;;5071963;28;20050;-62
2022/09/26 00:59:49;;;;;;;10.63;9.55;;;16.50;1.00;;;;;;5078118;28;20024;-61
2022/09/26 01:02:15;;;;;;;11.40;10.00;;;16.50;1.00;;;;;;5093298;28;20024;-61
2022/09/26 01:04:43;;;;;;;12.35;8.68;;;16.50;1.00;;;;;;5079592;28;20482;-62
2022/09/26 01:07:16;;;;;;;10.60;9.55;;;16.50;1.00;;;;;;5090213;28;20462;-61
2022/09/26 01:09:41;;;;;;;9.82;8.77;;;16.40;1.00;;;;;;5085696;28;20035;-63
2022/09/26 01:12:07;;;;;;;9.52;8.57;;;16.40;1.00;;;;;;5091913;28;20028;-62
2022/09/26 01:14:34;;;;;;;8.93;8.13;;;16.40;1.00;;;;;;5090929;28;20028;-61
2022/09/26 01:17:00;;;;;;;9.48;8.35;;;16.40;1.00;;;;;;5091552;28;20137;-62
2022/09/26 01:19:51;;;;;;;9.43;8.30;;;16.40;1.00;;;;;;5091057;28;20028;-62
2022/09/26 01:23:05;;;;;;;10.00;8.18;;;16.40;1.00;;;;;;5093100;28;20116;-62
2022/09/26 01:26:08;;;;;;;9.35;8.38;;;16.30;1.00;;;;;;5072306;28;20490;-62
2022/09/26 01:28:52;;;;;;;9.65;7.78;;;16.40;1.00;;;;;;5071124;28;20037;-62
2022/09/26 01:31:26;;;;;;;9.07;8.18;;;16.30;1.00;;;;;;5071597;28;20334;-61
2022/09/26 01:34:21;;;;;;;9.30;8.38;;;16.30;1.00;;;;;;5071067;28;20458;-61
2022/09/26 01:36:59;;;;;;;9.32;8.38;;;16.30;1.00;;;;;;5071538;28;20043;-62
2022/09/26 01:39:45;;;;;;;8.63;7.70;;;16.30;1.00;;;;;;5073841;28;20045;-62
2022/09/26 01:42:32;;;;;;;9.05;7.47;;;16.30;1.00;;;;;;5091361;28;20060;-61
2022/09/26 01:45:04;;;;;;;8.10;7.32;;;16.30;1.00;;;;;;5082595;28;20028;-61
2022/09/26 01:47:36;;;;;;;8.23;7.53;;;16.30;1.00;;;;;;5070869;28;20129;-61
2022/09/26 01:50:09;;;;;;;11.90;7.40;;;16.30;1.00;;;;;;5078935;28;20095;-61
2022/09/26 01:52:52;;;;;;;8.00;7.20;;;16.20;1.00;;;;;;5091254;28;20100;-61
2022/09/26 01:55:43;;;;;;;7.63;6.97;;;16.30;1.00;;;;;;5080095;28;20032;-61
2022/09/26 01:58:20;;;;;;;7.85;6.80;;;16.30;1.00;;;;;;5070255;28;20085;-61
2022/09/26 02:00:48;;;;;;;7.10;6.40;;;16.20;1.00;;;;;;5086430;28;20254;-61
2022/09/26 02:03:18;;;;;;;7.45;6.75;;;16.20;1.00;;;;;;5070510;28;20033;-61
2022/09/26 02:05:52;;;;;;;6.72;6.07;;;16.10;1.00;;;;;;5071742;28;20136;-61
2022/09/26 02:08:40;;;;;;;6.85;6.25;;;16.10;1.00;;;;;;5074610;28;20181;-61
2022/09/26 02:11:12;;;;;;;6.70;6.10;;;16.10;1.00;;;;;;5091046;28;20024;-61
2022/09/26 02:13:54;;;;;;;6.88;6.18;;;16.00;1.00;;;;;;5091700;28;20025;-61
2022/09/26 02:16:36;;;;;;;6.18;5.30;;;16.00;1.00;;;;;;5091640;28;20032;-61
2022/09/26 02:19:09;;;;;;;6.70;6.07;;;16.00;1.00;;;;;;5094925;28;20065;-61
2022/09/26 02:21:35;;;;;;;6.95;6.22;;;16.00;1.00;;;;;;5094577;28;20027;-61
2022/09/26 02:24:01;;;;;;;6.50;5.60;;;16.00;1.00;;;;;;5094665;28;20505;-61
2022/09/26 02:26:27;;;;;;;6.72;6.10;;;16.00;1.00;;;;;;5074923;28;20116;-61
2022/09/26 02:28:53;;;;;;;6.20;5.70;;;16.00;1.00;;;;;;5074267;28;20032;-61
2022/09/26 02:31:23;;;;;;;5.28;4.82;;;15.90;1.00;;;;;;5092521;28;20035;-61
2022/09/26 02:33:50;;;;;;;6.85;5.50;;;15.90;1.00;;;;;;5095513;28;20028;-61
2022/09/26 02:36:17;;;;;;;5.95;5.45;;;16.00;1.00;;;;;;5077230;28;20021;-61
2022/09/26 02:38:43;;;;;;;5.22;4.75;;;15.90;1.00;;;;;;5075056;28;20093;-61
2022/09/26 02:41:33;;;;;;;6.03;5.43;;;16.00;1.00;;;;;;5089712;28;20033;-61
2022/09/26 02:44:21;;;;;;;6.63;5.90;;;15.80;1.00;;;;;;5074994;28;20027;-61
2022/09/26 02:47:11;;;;;;;8.85;5.65;;;15.80;1.00;;;;;;5084300;28;20181;-61
2022/09/26 02:50:07;;;;;;;5.38;4.93;;;15.90;1.00;;;;;;5085463;28;20088;-61
2022/09/26 02:52:38;;;;;;;6.53;5.32;;;15.90;1.00;;;;;;5089500;28;20048;-61
2022/09/26 02:55:20;;;;;;;6.05;5.45;;;15.90;1.00;;;;;;5074552;28;20028;-61
2022/09/26 02:58:23;;;;;;;7.15;5.63;;;15.90;1.00;;;;;;5075070;28;20048;-61
2022/09/26 03:01:02;;;;;;;6.28;5.30;;;15.80;1.00;;;;;;5074482;28;20031;-61
2022/09/26 03:03:44;;;;;;;6.30;5.55;;;15.90;1.00;;;;;;5074273;28;20032;-61
2022/09/26 03:06:14;;;;;;;5.72;5.20;;;15.90;1.00;;;;;;5075041;28;20052;-61
2022/09/26 03:08:44;;;;;;;5.72;5.13;;;15.80;1.00;;;;;;5074396;28;20044;-61
2022/09/26 03:11:13;;;;;;;5.75;5.20;;;15.80;1.00;;;;;;5073816;28;20462;-61
2022/09/26 03:13:40;;;;;;;6.38;5.55;;;15.80;1.00;;;;;;5073997;28;20032;-61
2022/09/26 03:16:08;;;;;;;5.80;5.13;;;15.80;1.00;;;;;;5088553;28;20452;-61
2022/09/26 03:18:51;;;;;;;5.45;4.95;;;15.80;1.00;;;;;;5093621;28;20024;-61
2022/09/26 03:21:17;;;;;;;5.97;4.85;;;15.80;1.00;;;;;;5093552;28;20140;-61
2022/09/26 03:23:43;;;;;;;5.20;4.72;;;15.70;1.00;;;;;;5094072;28;20521;-61
2022/09/26 03:26:17;;;;;;;4.97;4.50;;;15.70;1.00;;;;;;5093568;28;20031;-61
2022/09/26 03:28:43;;;;;;;5.03;4.53;;;15.70;1.00;;;;;;5094808;28;20209;-61
2022/09/26 03:31:10;;;;;;;5.88;4.80;;;15.70;1.00;;;;;;5092141;28;20119;-61
2022/09/26 03:33:36;;;;;;;5.25;4.72;;;15.70;1.00;;;;;;5093622;28;20028;-61
2022/09/26 03:36:06;;;;;;;4.70;4.35;;;15.70;1.00;;;;;;5093050;28;20133;-61
2022/09/26 03:38:32;;;;;;;5.00;4.60;;;15.80;1.00;;;;;;5094079;28;20102;-61
2022/09/26 03:40:57;;;;;;;5.60;5.00;;;15.80;1.00;;;;;;5091944;28;20039;-61
2022/09/26 03:43:23;;;;;;;6.53;5.10;;;15.70;1.00;;;;;;5076902;28;20036;-61
2022/09/26 03:45:50;;;;;;;5.78;5.22;;;15.70;1.00;;;;;;5073460;28;20032;-61
2022/09/26 03:48:16;;;;;;;5.18;4.72;;;15.70;1.00;;;;;;5081359;28;20539;-61
2022/09/26 03:50:42;;;;;;;5.50;4.97;;;15.70;1.00;;;;;;5092719;28;20020;-61
2022/09/26 03:53:08;;;;;;;5.47;4.97;;;15.70;1.00;;;;;;5094176;28;20020;-61
2022/09/26 03:55:34;;;;;;;6.30;5.40;;;15.70;1.00;;;;;;5092828;28;20085;-61
2022/09/26 03:58:00;;;;;;;5.30;4.60;;;15.70;1.00;;;;;;5093844;28;20422;-61
2022/09/26 04:00:26;;;;;;;4.80;4.40;;;15.70;1.00;;;;;;5092203;28;20024;-61
2022/09/26 04:02:51;;;;;;;7.03;5.15;;;15.70;1.00;;;;;;5093663;28;20035;-61
2022/09/26 04:05:17;;;;;;;5.10;4.60;;;15.60;1.00;;;;;;5087622;28;20032;-61
2022/09/26 04:07:43;;;;;;;5.15;4.65;;;15.60;1.00;;;;;;5088016;28;20044;-61
2022/09/26 04:10:10;;;;;;;5.47;4.60;;;15.60;1.00;;;;;;5077037;28;20373;-61
2022/09/26 04:12:36;;;;;;;6.63;4.72;;;15.60;1.00;;;;;;5093114;28;20032;-61
2022/09/26 04:15:03;;;;;;;6.03;5.40;;;15.60;1.00;;;;;;5089584;28;20024;-61
2022/09/26 04:17:28;;;;;;;6.45;4.97;;;15.60;1.00;;;;;;5073065;28;20044;-61
2022/09/26 04:19:54;;;;;;;5.63;4.95;;;15.40;1.00;;;;;;5074591;28;20024;-62
2022/09/26 04:22:20;;;;;;;5.65;5.13;;;15.50;1.00;;;;;;5092910;28;20090;-61
2022/09/26 04:24:45;;;;;;;5.63;5.13;;;15.50;1.00;;;;;;5092028;28;20047;-61
2022/09/26 04:27:11;;;;;;;7.00;5.15;;;15.50;1.00;;;;;;5093047;28;20032;-61
2022/09/26 04:29:36;;;;;;;5.32;4.82;;;15.50;1.00;;;;;;5091121;28;20019;-61
2022/09/26 04:32:02;;;;;;;4.95;4.55;;;15.50;1.00;;;;;;5091103;28;20032;-61
2022/09/26 04:34:27;;;;;;;7.03;5.32;;;15.50;1.00;;;;;;5092612;28;20016;-61
2022/09/26 04:36:53;;;;;;;4.95;4.43;;;15.40;1.00;;;;;;5091861;28;20016;-61
2022/09/26 04:39:19;;;;;;;5.28;4.68;;;15.50;1.00;;;;;;5092796;28;20032;-61
2022/09/26 04:41:44;;;;;;;5.82;4.47;;;15.40;1.00;;;;;;5075574;28;20469;-61
2022/09/26 04:44:11;;;;;;;4.30;3.97;;;15.40;1.00;;;;;;5072357;28;20040;-61
2022/09/26 04:46:37;;;;;;;4.00;3.70;;;15.40;1.00;;;;;;5087261;28;20034;-61
2022/09/26 04:49:03;;;;;;;5.32;4.82;;;15.40;1.00;;;;;;5092732;28;20124;-61
2022/09/26 04:51:30;;;;;;;5.82;4.22;;;15.40;1.00;;;;;;5090775;28;20023;-61
2022/09/26 04:53:59;;;;;;;4.88;4.22;;;15.30;1.00;;;;;;5107847;28;20342;-61
2022/09/26 04:56:26;;;;;;;4.57;4.18;;;15.40;1.00;;;;;;5079925;28;20454;-61
2022/09/26 04:58:55;;;;;;;4.85;4.35;;;15.40;1.00;;;;;;5092759;28;20036;-61
2022/09/26 05:01:21;;;;;;;4.68;4.03;;;15.30;1.00;;;;;;5091753;28;20032;-61
2022/09/26 05:03:47;;;;;;;4.43;4.03;;;15.40;1.00;;;;;;5092212;28;20028;-61
2022/09/26 05:06:15;;;;;;;4.90;4.50;;;15.40;1.00;;;;;;5079710;28;20036;-61
2022/09/26 05:08:41;;;;;;;5.65;4.65;;;15.40;1.00;;;;;;5072031;28;20047;-61
2022/09/26 05:11:08;;;;;;;8.57;4.35;;;15.40;1.00;;;;;;5081640;28;20063;-61
2022/09/26 05:13:34;;;;;;;5.45;4.88;;;15.30;1.00;;;;;;5092273;28;20031;-61
2022/09/26 05:16:01;;;;;;;4.80;4.10;;;15.40;1.00;;;;;;5082943;28;20052;-61
2022/09/26 05:18:27;;;;;;;6.38;4.78;;;15.40;1.00;;;;;;5072086;28;20174;-61
2022/09/26 05:20:54;;;;;;;7.65;4.53;;;15.40;1.00;;;;;;5079076;28;20012;-61
2022/09/26 05:26:21;;;;;;;5.07;4.55;;;15.40;1.00;;;;;;5090853;28;20421;-61
2022/09/26 05:28:55;;;;;;;5.70;5.10;;;15.40;1.00;;;;;;5091859;28;20505;-61
2022/09/26 05:31:23;;;;;;;5.40;4.60;;;15.30;1.00;;;;;;5076816;28;20052;-61
2022/09/26 05:33:50;;;;;;;6.00;5.40;;;15.30;1.00;;;;;;5071471;28;20509;-61
2022/09/26 05:36:17;;;;;;;5.68;4.82;;;15.40;1.00;;;;;;5071716;28;20020;-61
2022/09/26 05:38:44;;;;;;;5.57;5.05;;;15.40;1.00;;;;;;5071790;28;20039;-61
2022/09/26 05:41:10;;;;;;;5.30;4.82;;;15.30;1.00;;;;;;5071219;28;20021;-61
2022/09/26 05:43:36;;;;;;;5.90;5.35;;;15.40;1.00;;;;;;5071765;28;20459;-61
2022/09/26 05:46:04;;;;;;;5.40;4.90;;;15.30;1.00;;;;;;5074840;28;20048;-61
2022/09/26 05:48:32;;;;;;;6.20;5.13;;;15.30;1.00;;;;;;5090890;28;20448;-62
2022/09/26 05:51:09;;;;;;;7.57;5.07;;;15.40;1.00;;;;;;5088246;28;20024;-61
2022/09/26 05:53:35;;;;;;;5.95;5.35;;;15.40;1.00;;;;;;5071783;28;20035;-61
2022/09/26 05:56:01;;;;;;;6.43;5.75;;;15.40;1.00;;;;;;5071580;28;20025;-61
2022/09/26 05:58:31;;;;;;;6.32;5.72;;;15.40;1.00;;;;;;5071461;28;20032;-61
2022/09/26 06:01:23;;;;;;;6.72;5.20;;;15.40;1.00;;;;;;5074167;28;20096;-61
2022/09/26 06:03:49;;;;;;;5.93;5.38;;;15.40;1.00;;;;;;5090639;28;20047;-61
2022/09/26 06:06:17;;;;;;;8.68;5.63;;;15.50;1.00;;;;;;5090836;28;20503;-61
2022/09/26 06:08:43;;;;;;;9.30;6.20;;;15.40;1.00;;;;;;5091296;28;20445;-61
2022/09/26 06:11:18;;;;;;;6.82;5.60;;;15.40;1.00;;;;;;5087347;28;20036;-61
2022/09/26 06:13:47;;;;;;;10.55;6.55;;;15.30;1.00;;;;;;5080126;28;20479;-61
2022/09/26 06:16:18;;;;;;;7.82;6.07;;;15.50;1.00;;;;;;5071221;28;20024;-61
2022/09/26 06:18:45;;;;;;;7.70;6.50;;;15.50;1.00;;;;;;5071219;28;20075;-61
2022/09/26 06:21:13;;;;;;;6.70;5.40;;;15.50;1.00;;;;;;5082016;28;20024;-62
2022/09/26 06:23:39;;;;;;;6.82;5.45;;;15.60;1.00;;;;;;5090590;28;20032;-61
2022/09/26 06:26:08;;;;;;;6.70;5.80;;;15.60;1.00;;;;;;5091624;28;20031;-61
2022/09/26 06:28:35;;;;;;;8.75;6.22;;;15.60;1.00;;;;;;5076505;28;20040;-61
2022/09/26 06:31:08;;;;;;;8.23;6.32;;;15.60;1.00;;;;;;5091547;28;20458;-61
2022/09/26 06:33:33;;;;;;;11.77;6.07;;;15.60;1.00;;;;;;5090524;28;20174;-62
2022/09/26 06:36:04;;;;;;;11.23;5.65;;;15.70;1.00;;;;;;5091503;28;20106;-62
2022/09/26 06:38:30;;;;;;;8.88;6.45;;;15.60;1.00;;;;;;5088615;28;20021;-61
2022/09/26 06:40:56;;;;;;;7.55;6.55;;;15.70;1.00;;;;;;5091506;28;20024;-61
2022/09/26 06:43:22;;;;;;;9.68;6.95;;;15.10;1.00;;;;;;5090265;28;20074;-60
2022/09/26 06:45:48;;;;;;;7.70;6.90;;;14.90;1.00;;;;;;5075369;28;20059;-60
2022/09/26 06:48:17;;;;;;;8.15;7.30;;;14.20;1.00;;;;;;5082645;28;20043;-60
2022/09/26 06:50:43;;;;;;;8.07;6.70;;;13.50;1.00;;;;;;5091358;28;20099;-60
2022/09/26 06:53:09;;;;;;;9.25;7.40;;;13.40;1.00;;;;;;5091376;28;20357;-60
2022/09/26 06:55:35;;;;;;;9.95;8.95;;;13.40;1.00;;;;;;5095006;28;20031;-60
2022/09/26 06:58:01;;;;;;;10.20;9.20;;;14.50;1.00;;;;;;5093688;28;20535;-60
2022/09/26 07:00:28;;;;;;;9.70;8.65;;;14.50;1.00;;;;;;5094600;28;20089;-60
2022/09/26 07:02:55;;;;;;;9.23;8.18;;;14.20;1.00;;;;;;5092800;28;20489;-59
2022/09/26 07:05:22;;;;;;;11.55;9.77;;;13.80;1.00;;;;;;5094955;28;20039;-60
2022/09/26 07:07:48;;;;;;;16.10;10.30;;;13.80;1.00;;;;;;5082066;28;20043;-60
2022/09/26 07:10:17;;;;;;;10.95;9.82;;;14.60;1.00;;;;;;5094226;28;20051;-60
2022/09/26 07:12:45;;;;;;;10.02;8.57;;;14.60;1.00;;;;;;5093548;28;20338;-60
2022/09/26 07:15:17;;;;;;;15.43;10.32;;;14.20;1.00;;;;;;5109853;28;20385;-60
2022/09/26 07:17:45;;;;;;;15.68;10.77;;;14.70;1.00;;;;;;5093286;28;20501;-60
2022/09/26 07:20:18;;;;;;;14.73;11.02;;;15.10;1.00;;;;;;5094586;28;20134;-60
2022/09/26 07:22:44;;;;;;;14.27;11.73;;;15.20;1.00;;;;;;5093458;28;20040;-60
2022/09/26 07:25:11;;;;;;;13.45;11.30;;;15.40;1.00;;;;;;5094017;28;20515;-60
2022/09/26 07:27:37;;;;;;;14.75;11.73;;;15.40;1.00;;;;;;5093158;28;20040;-61
2022/09/26 07:30:05;;;;;;;16.05;11.77;;;15.50;1.00;;;;;;5094032;28;20024;-60
2022/09/26 07:32:31;;;;;;;18.95;13.07;;;15.60;1.00;;;;;;5093664;28;20031;-60
2022/09/26 07:35:02;;;;;;;20.35;12.68;;;15.70;1.00;;;;;;5092894;28;20431;-60
2022/09/26 07:37:28;;;;;;;16.05;12.63;;;15.70;1.00;;;;;;5082573;28;20077;-60
2022/09/26 07:39:54;;;;;;;16.83;12.63;;;15.80;1.00;;;;;;5093842;28;20496;-60
2022/09/26 07:42:20;;;;;;;16.08;12.98;;;15.80;1.00;;;;;;5093154;28;20055;-60
2022/09/26 07:44:46;;;;;;;14.50;12.75;;;15.90;1.00;;;;;;5093655;28;20016;-60
2022/09/26 07:50:13;;;;;;;16.42;13.13;;;15.90;1.00;;;;;;5092978;28;20409;-60
2022/09/26 07:52:41;;;;;;;15.68;11.90;;;16.00;1.00;;;;;;5092510;28;20024;-60
2022/09/26 07:55:07;;;;;;;13.25;11.52;;;16.00;1.00;;;;;;5093465;28;20377;-60
2022/09/26 07:57:34;;;;;;;15.63;11.43;;;16.10;1.00;;;;;;5092826;28;20115;-60
2022/09/26 08:00:11;;;;;;;12.50;11.20;;;16.10;1.00;;;;;;5093449;28;20028;-60
2022/09/26 08:02:41;;;;;;;11.50;10.40;;;16.10;1.00;;;;;;5090084;28;20040;-60
2022/09/26 08:05:10;;;;;;;12.15;10.45;;;16.20;1.00;;;;;;5093416;28;20074;-60
2022/09/26 08:07:36;;;;;;;13.93;10.23;;;16.20;1.00;;;;;;5092478;28;20048;-60
2022/09/26 08:10:05;;;;;;;11.40;10.18;;;16.30;1.00;;;;;;5086375;28;20463;-60
2022/09/26 08:12:37;;;;;;;10.35;9.25;;;16.30;1.00;;;;;;5092516;28;20466;-60
2022/09/26 08:15:07;;;;;;;10.43;9.13;;;16.30;1.00;;;;;;5090435;28;20031;-60
2022/09/26 08:17:33;;;;;;;11.90;10.48;;;16.40;1.00;;;;;;5086285;28;20089;-60
2022/09/26 08:20:00;;;;;;;10.88;9.38;;;16.40;1.00;;;;;;5086644;28;20195;-60
2022/09/26 08:22:26;;;;;;;13.40;10.32;;;16.40;1.00;;;;;;5092359;28;20464;-61
2022/09/26 08:24:54;;;;;;;12.63;10.60;;;16.50;1.00;;;;;;5091216;28;20052;-60
2022/09/26 08:27:21;;;;;;;11.07;9.82;;;16.50;1.00;;;;;;5093198;28;20028;-60
2022/09/26 08:29:48;;;;;;;11.80;9.95;;;16.60;1.00;;;;;;5091827;28;20130;-61
2022/09/26 08:32:15;;;;;;;13.18;9.82;;;16.60;1.00;;;;;;5093528;28;20058;-61
2022/09/26 08:34:41;;;;;;;11.63;10.10;;;16.60;1.00;;;;;;5076918;28;20044;-60
2022/09/26 08:37:06;;;;;;;9.45;8.45;;;16.60;1.00;;;;;;5072106;28;20032;-60
2022/09/26 08:39:38;;;;;;;11.07;8.27;;;16.70;1.00;;;;;;5072278;28;20032;-60
2022/09/26 08:42:06;;;;;;;10.90;9.52;;;16.70;1.00;;;;;;5071456;28;20474;-61
2022/09/26 08:45:11;;;;;;;12.15;10.05;;;16.80;1.00;;;;;;5072573;28;20028;-60
2022/09/26 08:47:51;;;;;;;10.65;9.65;;;16.80;1.00;;;;;;5072710;28;20040;-61
2022/09/26 08:50:31;;;;;;;12.05;10.68;;;16.90;1.00;;;;;;5072799;28;20101;-61
2022/09/26 08:53:08;;;;;;;13.00;10.25;;;16.90;1.00;;;;;;5072183;28;20029;-61
2022/09/26 08:55:39;;;;;;;12.25;10.95;;;16.90;1.00;;;;;;5092543;28;20338;-61
2022/09/26 08:58:18;;;;;;;11.45;10.23;;;17.00;1.00;;;;;;5090782;28;20035;-60
2022/09/26 09:00:46;;;;;;;10.68;8.63;;;17.00;1.00;;;;;;5093054;28;20369;-61
2022/09/26 09:03:24;;;;;;;11.98;8.10;;;17.10;1.00;;;;;;5089872;28;20020;-60
2022/09/26 09:06:06;;;;;;;13.18;10.98;;;17.10;1.00;;;;;;5072692;28;20429;-60
2022/09/26 09:08:39;;;;;;;11.18;10.10;;;17.30;1.00;;;;;;5083264;28;20384;-60
2022/09/26 09:11:23;;;;;;;13.02;11.27;;;17.40;1.00;;;;;;5091015;28;20032;-60
2022/09/26 09:14:10;;;;;;;14.77;11.50;;;17.40;1.00;;;;;;5089923;28;20027;-61
2022/09/26 09:16:44;;;;;;;13.52;12.23;;;17.40;1.00;;;;;;5091076;28;20028;-60
2022/09/26 09:19:58;;;;;;;15.68;13.55;;;17.40;1.00;;;;;;5090917;28;20028;-61
2022/09/26 09:22:51;;;;;;;15.00;11.75;;;17.50;1.00;;;;;;5087614;28;20032;-60
2022/09/26 09:25:34;;;;;;;14.15;12.65;;;17.60;1.00;;;;;;5090562;28;20204;-60
2022/09/26 09:28:37;;;;;;;17.42;12.57;;;17.60;1.00;;;;;;5091552;28;20036;-60
2022/09/26 09:31:08;;;;;;;17.85;12.18;;;17.70;1.00;;;;;;5073273;28;20378;-61
2022/09/26 09:33:47;;;;;;;14.05;12.30;;;17.80;1.00;;;;;;5090304;28;20032;-61
2022/09/26 09:36:50;;;;;;;13.65;12.20;;;17.90;1.00;;;;;;5071940;28;20028;-60
2022/09/26 09:39:42;;;;;;;13.95;12.48;;;17.90;1.00;;;;;;5076064;28;20039;-61
2022/09/26 09:42:37;;;;;;;13.45;12.07;;;17.90;1.00;;;;;;5091826;28;20036;-61
2022/09/26 09:45:11;;;;;;;15.93;11.70;;;17.90;1.00;;;;;;5089835;28;20043;-61
2022/09/26 09:47:38;;;;;;;14.70;13.25;;;18.00;1.00;;;;;;5091093;28;20448;-60
2022/09/26 09:50:16;;;;;;;18.70;12.40;;;18.00;1.00;;;;;;5089465;28;20161;-60
2022/09/26 09:52:53;;;;;;;11.95;10.75;;;18.00;1.00;;;;;;5091073;28;20356;-61
2022/09/26 09:55:42;;;;;;;13.65;9.60;;;18.10;1.00;;;;;;5090028;28;20032;-61
2022/09/26 09:58:26;;;;;;;9.40;8.43;;;18.30;1.00;;;;;;5092163;28;20033;-60
2022/09/26 10:01:14;;;;;;;10.90;9.88;;;18.30;1.00;;;;;;5091434;28;20024;-61
2022/09/26 10:04:10;;;;;;;9.85;8.85;;;18.20;1.00;;;;;;5091171;28;20095;-60
2022/09/26 10:06:36;;;;;;;10.20;9.15;;;18.30;1.00;;;;;;5091238;28;20032;-60
2022/09/26 10:09:23;;;;;;;9.30;8.40;;;18.30;1.00;;;;;;5090491;28;20112;-61
2022/09/26 10:11:50;;;;;;;10.38;8.90;;;18.30;1.00;;;;;;5107364;28;20024;-61
2022/09/26 10:14:47;;;;;;;10.18;9.18;;;18.30;1.00;;;;;;5090544;28;20394;-61
2022/09/26 10:17:14;;;;;;;11.70;9.73;;;18.40;1.00;;;;;;5075348;28;20036;-61
2022/09/26 10:19:42;;;;;;;13.93;12.43;;;18.50;1.00;;;;;;5090506;28;20442;-61
2022/09/26 10:22:18;;;;;;;12.90;11.07;;;18.60;1.00;;;;;;5087251;28;20431;-61
2022/09/26 10:24:46;;;;;;;11.52;10.43;;;18.60;1.00;;;;;;5075805;28;20071;-61
2022/09/26 10:27:20;;;;;;;11.30;9.88;;;18.60;1.00;;;;;;5076428;28;20048;-61
2022/09/26 10:29:58;;;;;;;10.02;8.93;;;18.70;1.00;;;;;;5081842;28;20029;-61
2022/09/26 10:32:25;;;;;;;10.05;8.95;;;18.80;1.00;;;;;;5075252;28;20025;-61
2022/09/26 10:35:24;;;;;;;10.40;9.32;;;18.80;1.00;;;;;;5086545;28;20082;-61
2022/09/26 10:38:16;;;;;;;12.82;10.40;;;18.90;1.00;;;;;;5092980;28;20028;-61
2022/09/26 10:40:51;;;;;;;8.38;7.57;;;18.90;1.00;;;;;;5083969;28;20151;-61
2022/09/26 10:43:20;;;;;;;9.57;7.35;;;18.80;1.00;;;;;;5089666;28;20031;-61
2022/09/26 10:45:48;;;;;;;9.73;8.68;;;19.00;1.00;;;;;;5088526;28;20028;-61
2022/09/26 10:48:20;;;;;;;10.98;9.90;;;19.10;1.00;;;;;;5085838;28;20185;-61
2022/09/26 10:50:51;;;;;;;12.13;10.93;;;19.20;1.00;;;;;;5081907;28;20435;-61
2022/09/26 10:53:21;;;;;;;12.65;11.35;;;19.20;1.00;;;;;;5081033;28;20119;-61
2022/09/26 10:55:57;;;;;;;13.90;12.40;;;19.30;1.00;;;;;;5093254;28;20059;-61
2022/09/26 10:58:28;;;;;;;14.50;13.02;;;19.30;1.00;;;;;;5087936;28;20443;-61
2022/09/26 11:00:56;;;;;;;13.65;12.05;;;19.40;1.00;;;;;;5090597;28;20070;-59
2022/09/26 11:03:45;;;;;;;16.23;13.88;;;19.50;1.00;;;;;;5084533;28;20039;-59
2022/09/26 11:06:31;;;;;;;16.75;14.52;;;19.50;1.00;;;;;;5089193;28;20040;-58
2022/09/26 11:09:01;;;;;;;15.02;12.85;;;19.50;1.00;;;;;;5091876;28;20075;-59
2022/09/26 11:11:35;;;;;;;15.27;13.18;;;19.60;1.00;;;;;;5092672;28;20081;-59
2022/09/26 11:14:07;;;;;;;14.88;12.48;;;19.60;1.00;;;;;;5076557;28;20028;-58
2022/09/26 11:16:52;;;;;;;14.50;12.27;;;19.50;1.00;;;;;;5087209;28;20509;-58
2022/09/26 11:19:51;;;;;;;14.20;12.68;;;19.10;1.00;;;;;;5089944;28;20031;-59
2022/09/26 11:22:18;;;;;;;13.07;11.77;;;18.30;1.00;;;;;;5072713;28;20040;-58
2022/09/26 11:24:53;;;;;;;13.50;11.95;;;18.60;1.00;;;;;;5077734;28;20420;-59
2022/09/26 11:27:42;;;;;;;11.43;9.95;;;18.80;1.00;;;;;;5093138;28;20073;-59
2022/09/26 11:30:19;;;;;;;11.45;10.25;;;19.20;1.00;;;;;;5092401;28;20020;-57
2022/09/26 11:33:10;;;;;;;11.00;9.90;;;19.30;1.00;;;;;;5093110;28;20028;-58
2022/09/26 11:35:57;;;;;;;9.98;8.73;;;19.30;1.00;;;;;;5087633;28;20029;-59
2022/09/26 11:38:55;;;;;;;9.57;8.57;;;19.40;1.00;;;;;;5071900;28;20104;-58
2022/09/26 11:42:00;;;;;;;9.27;8.38;;;19.50;1.00;;;;;;5090806;28;20472;-59
2022/09/26 11:44:34;;;;;;;8.77;7.88;;;19.70;1.00;;;;;;5086598;28;20150;-57
2022/09/26 11:47:35;;;;;;;9.02;7.82;;;19.80;1.00;;;;;;5072623;28;20119;-58
2022/09/26 11:50:29;;;;;;;7.25;6.55;;;19.90;1.00;;;;;;5082889;28;20028;-59
2022/09/26 11:53:39;;;;;;;6.75;6.15;;;20.00;1.00;;;;;;5074226;28;20063;-60
2022/09/26 11:56:29;;;;;;;6.75;5.45;;;20.10;1.00;;;;;;5052052;28;20109;-58
2022/09/26 11:58:58;;;;;;;6.70;6.05;;;20.10;1.00;;;;;;5073012;28;20082;-58
2022/09/26 12:01:41;;;;;;;5.63;5.13;;;20.20;1.00;;;;;;5090117;28;20024;-57
2022/09/26 12:04:34;;;;;;;4.35;3.95;;;20.30;1.00;;;;;;5093865;28;20031;-58
2022/09/26 12:07:16;;;;;;;7.47;4.82;;;20.40;1.00;;;;;;5074934;28;20025;-58
2022/09/26 12:10:13;;;;;;;6.75;6.05;;;20.70;1.00;;;;;;5075776;28;20051;-58
2022/09/26 12:13:05;;;;;;;7.50;5.93;;;20.70;1.00;;;;;;5073527;28;20482;-58
2022/09/26 12:16:09;;;;;;;6.40;5.80;;;20.70;1.00;;;;;;5074970;28;20020;-58
2022/09/26 12:18:52;;;;;;;4.83;4.40;;;21.00;1.00;;;;;;5064426;28;20036;-58
2022/09/26 12:22:27;;;;;;;7.47;6.32;;;21.20;1.00;;;;;;5074526;28;20040;-59
2022/09/26 12:24:38;;;;;;;5.60;5.10;;;21.30;1.00;;;;;;5075513;28;20098;-59
2022/09/26 12:27:19;;;;;;;4.88;3.80;;;21.40;1.00;;;;;;5088265;28;20127;-59
2022/09/26 12:30:12;;;;;;;5.40;4.90;;;21.70;1.00;;;;;;5085840;28;20024;-58
2022/09/26 12:32:47;;;;;;;5.57;5.07;;;21.90;1.00;;;;;;5104325;28;20039;-58
2022/09/26 12:35:28;;;;;;;6.70;6.05;;;22.20;1.00;;;;;;5089230;28;20024;-56
2022/09/26 12:38:26;;;;;;;8.55;5.35;;;23.00;1.00;;;;;;5081695;28;20016;-57
2022/09/26 12:41:01;;;;;;;6.03;5.47;;;27.60;1.00;;;;;;5080193;28;20619;-58
2022/09/26 12:43:54;;;;;;;6.75;6.15;;;32.20;1.00;;;;;;5092697;28;20504;-59
2022/09/26 12:46:32;;;;;;;7.20;6.40;;;34.60;1.00;;;;;;5087616;28;20081;-58
2022/09/26 12:49:08;;;;;;;7.50;6.80;;;36.40;1.00;;;;;;5092707;28;20500;-59
2022/09/26 12:51:42;;;;;;;8.52;6.85;;;36.90;1.00;;;;;;5091077;28;20020;-59
2022/09/26 12:54:39;;;;;;;7.18;6.45;;;37.80;1.00;;;;;;5092731;28;20060;-59
2022/09/26 12:57:07;;;;;;;6.85;6.25;;;37.90;1.00;;;;;;5083907;28;20028;-58
2022/09/26 12:59:54;;;;;;;7.00;6.35;;;38.00;1.00;;;;;;5090517;28;20073;-59
2022/09/26 13:02:45;;;;;;;4.97;4.55;;;38.50;1.00;;;;;;5088327;28;20032;-58
2022/09/26 13:05:26;;;;;;;4.05;3.75;;;38.30;1.00;;;;;;5087057;28;20386;-59
2022/09/26 13:08:09;;;;;;;4.68;3.22;;;38.90;1.00;;;;;;5088711;28;20028;-59
2022/09/26 13:10:46;;;;;;;3.97;3.67;;;38.40;1.00;;;;;;5091032;28;20023;-58
2022/09/26 13:13:21;;;;;;;4.82;3.33;;;39.40;1.00;;;;;;5073908;28;20025;-58
2022/09/26 13:16:11;;;;;;;6.55;4.55;;;40.10;1.00;;;;;;5081926;28;20452;-59
2022/09/26 13:18:45;;;;;;;3.60;3.22;;;39.40;1.00;;;;;;5083033;28;20034;-58
2022/09/26 13:21:17;;;;;;;3.57;2.63;;;39.60;1.00;;;;;;5091091;28;20012;-59
2022/09/26 13:23:58;;;;;;;3.47;2.42;;;40.00;1.00;;;;;;5090819;28;20038;-58
2022/09/26 13:26:45;;;;;;;2.28;2.08;;;39.20;1.00;;;;;;5084471;28;20040;-58
2022/09/26 13:29:25;;;;;;;2.47;2.28;;;35.70;1.00;;;;;;5087509;28;20051;-58
2022/09/26 13:32:02;;;;;;;2.65;2.45;;;30.90;1.00;;;;;;5089068;28;20035;-57
2022/09/26 13:34:44;;;;;;;2.72;2.53;;;28.90;1.00;;;;;;5079646;28;20036;-57